createdAt,value
2023-04-07T00:00:04.678Z,21.97
2023-04-07T00:02:33.368Z,18.80
2023-04-07T00:05:02.888Z,20.90
2023-04-07T00:07:31.323Z,18.70
2023-04-07T00:10:01.169Z,22.03
2023-04-07T00:12:29.150Z,20.50
2023-04-07T00:14:57.137Z,16.67
2023-04-07T00:17:25.156Z,18.63
2023-04-07T00:19:53.134Z,19.87
2023-04-07T00:22:21.096Z,22.53
2023-04-07T00:24:49.096Z,21.37
2023-04-07T00:27:18.424Z,23.70
2023-04-07T00:29:46.831Z,19.93
2023-04-07T00:32:15.142Z,20.90
2023-04-07T00:34:43.219Z,17.50
2023-04-07T00:37:11.452Z,21.23
2023-04-07T00:39:40.328Z,20.60
2023-04-07T00:42:08.347Z,20.63
2023-04-07T00:44:37.708Z,20.00
2023-04-07T00:47:05.928Z,18.60
2023-04-07T00:49:34.044Z,21.90
2023-04-07T00:52:02.511Z,18.13
2023-04-07T00:54:31.743Z,21.80
2023-04-07T00:56:59.816Z,36.50
2023-04-07T00:59:29.277Z,22.00
2023-04-07T01:02:04.213Z,19.17
2023-04-07T01:04:36.600Z,18.63
2023-04-07T01:07:10.420Z,17.27
2023-04-07T01:09:42.376Z,19.77
2023-04-07T01:12:17.487Z,18.70
2023-04-07T01:14:53.028Z,20.77
2023-04-07T01:17:25.358Z,20.23
2023-04-07T01:19:59.247Z,14.60
2023-04-07T01:22:32.483Z,24.57
2023-04-07T01:25:30.305Z,23.23
2023-04-07T01:28:11.356Z,19.57
2023-04-07T01:30:42.574Z,20.43
2023-04-07T01:33:12.694Z,19.97
2023-04-07T01:35:42.540Z,24.03
2023-04-07T01:38:12.002Z,21.50
2023-04-07T01:40:41.507Z,20.53
2023-04-07T01:43:09.995Z,20.60
2023-04-07T01:45:40.924Z,25.10
2023-04-07T01:48:09.451Z,19.40
2023-04-07T01:50:38.990Z,18.33
2023-04-07T01:53:07.540Z,20.60
2023-04-07T01:55:36.012Z,20.90
2023-04-07T01:58:06.922Z,18.17
2023-04-07T02:00:34.928Z,17.70
2023-04-07T02:03:11.297Z,23.77
2023-04-07T02:05:40.776Z,22.37
2023-04-07T02:08:12.010Z,17.83
2023-04-07T02:10:40.584Z,19.17
2023-04-07T02:13:11.053Z,18.20
2023-04-07T02:15:40.200Z,20.30
2023-04-07T02:18:12.891Z,20.03
2023-04-07T02:20:42.191Z,17.13
2023-04-07T02:23:10.360Z,19.00
2023-04-07T02:25:39.208Z,50.93
2023-04-07T02:28:07.320Z,17.10
2023-04-07T02:30:35.899Z,18.03
2023-04-07T02:33:03.903Z,20.60
2023-04-07T02:35:33.267Z,17.60
2023-04-07T02:38:01.416Z,20.90
2023-04-07T02:40:29.553Z,17.87
2023-04-07T02:42:57.527Z,17.30
2023-04-07T02:45:25.700Z,17.83
2023-04-07T02:47:54.095Z,19.93
2023-04-07T02:50:22.175Z,20.30
2023-04-07T02:52:51.488Z,18.60
2023-04-07T02:55:19.548Z,19.77
2023-04-07T02:57:47.538Z,19.17
2023-04-07T03:00:16.723Z,17.00
2023-04-07T03:02:44.855Z,18.00
2023-04-07T03:05:13.163Z,18.97
2023-04-07T03:07:41.483Z,17.50
2023-04-07T03:10:11.625Z,18.53
2023-04-07T03:12:39.655Z,19.90
2023-04-07T03:15:08.813Z,19.53
2023-04-07T03:17:36.872Z,27.13
2023-04-07T03:20:05.572Z,18.90
2023-04-07T03:22:33.591Z,20.23
2023-04-07T03:25:01.962Z,21.33
2023-04-07T03:27:31.291Z,24.00
2023-04-07T03:29:59.324Z,21.73
2023-04-07T03:32:27.314Z,17.23
2023-04-07T03:34:55.281Z,19.60
2023-04-07T03:37:23.219Z,18.70
2023-04-07T03:39:52.141Z,18.63
2023-04-07T03:42:20.289Z,19.10
2023-04-07T03:44:49.629Z,19.53
2023-04-07T03:47:17.597Z,20.70
2023-04-07T03:49:46.288Z,19.40
2023-04-07T03:52:15.572Z,20.13
2023-04-07T03:54:43.598Z,17.33
2023-04-07T03:57:11.568Z,23.20
2023-04-07T03:59:39.585Z,20.40
2023-04-07T04:02:09.233Z,17.40
2023-04-07T04:04:37.434Z,20.77
2023-04-07T04:07:05.606Z,19.93
2023-04-07T04:09:33.608Z,20.17
2023-04-07T04:12:01.579Z,21.93
2023-04-07T04:14:29.735Z,33.37
2023-04-07T04:16:57.686Z,21.33
2023-04-07T04:19:27.172Z,20.33
2023-04-07T04:21:55.109Z,19.90
2023-04-07T04:24:23.162Z,24.90
2023-04-07T04:26:51.231Z,30.20
2023-04-07T04:29:19.410Z,33.20
2023-04-07T04:31:47.510Z,39.40
2023-04-07T04:34:15.517Z,29.20
2023-04-07T04:36:44.983Z,22.10
2023-04-07T04:39:12.997Z,19.13
2023-04-07T04:41:40.961Z,18.23
2023-04-07T04:44:09.069Z,20.07
2023-04-07T04:46:37.237Z,25.00
2023-04-07T04:49:06.408Z,17.63
2023-04-07T04:51:34.383Z,20.43
2023-04-07T04:54:06.352Z,18.80
2023-04-07T04:56:34.411Z,21.90
2023-04-07T04:59:02.319Z,18.97
2023-04-07T05:01:32.125Z,19.23
2023-04-07T05:04:01.412Z,19.57
2023-04-07T05:06:29.548Z,19.90
2023-04-07T05:08:57.506Z,24.67
2023-04-07T05:11:26.932Z,22.00
2023-04-07T05:13:54.912Z,23.37
2023-04-07T05:16:22.881Z,21.20
2023-04-07T05:18:51.196Z,20.53
2023-04-07T05:21:20.162Z,19.43
2023-04-07T05:23:48.096Z,17.83
2023-04-07T05:26:16.167Z,18.60
2023-04-07T05:28:45.490Z,24.67
2023-04-07T05:31:13.486Z,21.67
2023-04-07T05:33:41.548Z,20.03
2023-04-07T05:36:09.684Z,19.80
2023-04-07T05:38:37.693Z,19.13
2023-04-07T05:41:05.766Z,19.67
2023-04-07T05:43:33.671Z,24.63
2023-04-07T05:46:02.968Z,24.93
2023-04-07T05:48:30.923Z,34.33
2023-04-07T05:50:58.921Z,23.83
2023-04-07T05:53:27.115Z,20.20
2023-04-07T05:55:55.303Z,20.43
2023-04-07T05:58:23.228Z,16.47
2023-04-07T06:00:51.575Z,23.23
2023-04-07T06:03:21.053Z,36.63
2023-04-07T06:05:49.210Z,44.07
2023-04-07T06:08:17.146Z,30.03
2023-04-07T06:10:45.576Z,23.77
2023-04-07T06:13:13.633Z,29.10
2023-04-07T06:15:41.699Z,22.83
2023-04-07T06:18:09.650Z,18.50
2023-04-07T06:20:38.996Z,18.50
2023-04-07T06:23:07.017Z,19.30
2023-04-07T06:25:34.984Z,18.87
2023-04-07T06:28:02.998Z,19.00
2023-04-07T06:30:31.059Z,20.40
2023-04-07T06:32:59.096Z,20.63
2023-04-07T06:35:27.848Z,21.30
2023-04-07T06:37:57.668Z,29.27
2023-04-07T06:40:25.661Z,24.10
2023-04-07T06:42:54.663Z,17.20
2023-04-07T06:45:22.604Z,20.20
2023-04-07T06:47:50.617Z,25.43
2023-04-07T06:50:20.841Z,19.40
2023-04-07T06:52:48.853Z,19.20
2023-04-07T06:55:18.324Z,26.03
2023-04-07T06:57:46.322Z,20.43
2023-04-07T07:00:15.004Z,24.40
2023-04-07T07:02:43.053Z,22.00
2023-04-07T07:05:11.624Z,21.13
2023-04-07T07:07:39.636Z,24.47
2023-04-07T07:10:09.742Z,28.03
2023-04-07T07:12:39.145Z,18.83
2023-04-07T07:15:08.560Z,19.07
2023-04-07T07:17:36.680Z,31.40
2023-04-07T07:20:05.769Z,29.00
2023-04-07T07:22:33.859Z,24.70
2023-04-07T07:25:01.895Z,18.47
2023-04-07T07:27:29.803Z,17.20
2023-04-07T07:29:59.172Z,19.47
2023-04-07T07:32:27.129Z,22.93
2023-04-07T07:34:55.078Z,18.03
2023-04-07T07:37:23.196Z,16.80
2023-04-07T07:39:51.259Z,20.63
2023-04-07T07:42:19.519Z,19.57
2023-04-07T07:44:47.565Z,22.50
2023-04-07T07:47:17.225Z,16.97
2023-04-07T07:49:45.250Z,17.53
2023-04-07T07:52:13.182Z,15.70
2023-04-07T07:54:41.151Z,18.57
2023-04-07T07:57:09.192Z,19.43
2023-04-07T07:59:37.268Z,19.50
2023-04-07T08:02:05.448Z,20.87
2023-04-07T08:04:34.931Z,23.07
2023-04-07T08:07:03.051Z,22.63
2023-04-07T08:09:32.105Z,19.10
2023-04-07T08:12:00.631Z,23.00
2023-04-07T08:14:28.549Z,21.57
2023-04-07T08:16:57.023Z,21.60
2023-04-07T08:19:25.153Z,21.43
2023-04-07T08:21:54.492Z,17.00
2023-04-07T08:24:22.550Z,17.70
2023-04-07T08:26:50.543Z,25.67
2023-04-07T08:29:18.455Z,15.30
2023-04-07T08:31:46.550Z,23.00
2023-04-07T08:34:14.978Z,14.27
2023-04-07T08:36:44.020Z,17.53
2023-04-07T08:39:13.548Z,18.30
2023-04-07T08:41:44.645Z,19.17
2023-04-07T08:44:14.080Z,18.60
2023-04-07T08:46:42.790Z,18.30
2023-04-07T08:49:13.743Z,20.97
2023-04-07T08:51:47.629Z,16.60
2023-04-07T08:54:21.566Z,12.30
2023-04-07T08:56:49.705Z,14.23
2023-04-07T08:59:18.576Z,12.00
2023-04-07T09:01:48.251Z,24.00
2023-04-07T09:04:16.627Z,16.50
2023-04-07T09:06:45.408Z,16.20
2023-04-07T09:09:14.952Z,19.10
2023-04-07T09:11:44.828Z,15.40
2023-04-07T09:14:13.040Z,14.53
2023-04-07T09:16:41.269Z,16.90
2023-04-07T09:19:09.809Z,15.93
2023-04-07T09:21:51.231Z,14.07
2023-04-07T09:24:23.651Z,15.03
2023-04-07T09:26:52.994Z,15.23
2023-04-07T09:29:21.891Z,19.27
2023-04-07T09:31:51.905Z,14.93
2023-04-07T09:34:27.869Z,15.93
2023-04-07T09:36:56.634Z,15.60
2023-04-07T09:39:24.918Z,15.13
2023-04-07T09:41:54.497Z,16.17
2023-04-07T09:44:23.837Z,13.37
2023-04-07T09:46:53.211Z,13.33
2023-04-07T09:49:21.349Z,14.60
2023-04-07T09:51:56.837Z,14.53
2023-04-07T09:54:35.976Z,14.67
2023-04-07T09:57:06.065Z,13.77
2023-04-07T09:59:35.531Z,18.20
2023-04-07T10:02:03.935Z,14.13
2023-04-07T10:04:32.191Z,14.03
2023-04-07T10:07:01.200Z,15.67
2023-04-07T10:09:30.220Z,13.60
2023-04-07T10:11:59.703Z,16.73
2023-04-07T10:14:31.870Z,20.80
2023-04-07T10:17:02.148Z,19.10
2023-04-07T10:19:33.798Z,16.20
2023-04-07T10:22:04.024Z,15.90
2023-04-07T10:24:46.018Z,14.87
2023-04-07T10:27:18.939Z,14.43
2023-04-07T10:29:51.494Z,15.27
2023-04-07T10:32:19.880Z,16.63
2023-04-07T10:34:58.529Z,15.80
2023-04-07T10:37:28.228Z,14.77
2023-04-07T10:40:30.493Z,16.43
2023-04-07T10:42:59.016Z,17.97
2023-04-07T10:46:03.173Z,15.73
2023-04-07T10:48:33.165Z,16.00
2023-04-07T10:51:17.653Z,15.80
2023-04-07T10:54:18.738Z,14.73
2023-04-07T10:57:07.818Z,16.83
2023-04-07T10:59:35.990Z,15.67
2023-04-07T11:02:36.008Z,15.43
2023-04-07T11:05:04.665Z,16.43
2023-04-07T11:07:55.271Z,14.73
2023-04-07T11:10:23.433Z,16.93
2023-04-07T11:13:06.201Z,18.67
2023-04-07T11:15:35.498Z,13.87
2023-04-07T11:18:23.332Z,16.33
2023-04-07T11:20:54.433Z,16.40
2023-04-07T11:23:25.297Z,17.87
2023-04-07T11:26:00.527Z,16.60
2023-04-07T11:28:28.768Z,15.80
2023-04-07T11:30:58.170Z,18.93
2023-04-07T11:33:29.246Z,19.50
2023-04-07T11:35:59.028Z,14.70
2023-04-07T11:38:29.504Z,18.53
2023-04-07T11:40:58.288Z,15.00
2023-04-07T11:43:27.716Z,17.20
2023-04-07T11:46:06.669Z,16.30
2023-04-07T11:48:37.124Z,19.33
2023-04-07T11:51:05.785Z,13.23
2023-04-07T11:53:35.769Z,15.77
2023-04-07T11:56:05.796Z,15.97
2023-04-07T11:58:33.936Z,16.30
2023-04-07T12:01:08.815Z,16.83
2023-04-07T12:03:39.216Z,17.10
2023-04-07T12:06:08.485Z,17.40
2023-04-07T12:08:41.458Z,21.97
2023-04-07T12:11:10.170Z,20.53
2023-04-07T12:13:39.036Z,17.30
2023-04-07T12:16:07.509Z,18.10
2023-04-07T12:18:36.468Z,17.60
2023-04-07T12:21:06.681Z,14.90
2023-04-07T12:23:34.718Z,16.20
2023-04-07T12:26:03.279Z,20.87
2023-04-07T12:28:31.296Z,20.57
2023-04-07T12:30:59.207Z,17.87
2023-04-07T12:33:27.215Z,16.93
2023-04-07T12:35:55.507Z,15.20
2023-04-07T12:38:25.244Z,15.90
2023-04-07T12:40:53.194Z,16.87
2023-04-07T12:43:21.332Z,17.83
2023-04-07T12:45:49.386Z,22.73
2023-04-07T12:48:18.665Z,16.27
2023-04-07T12:50:46.661Z,15.37
2023-04-07T12:53:14.757Z,14.80
2023-04-07T12:55:44.074Z,19.00
2023-04-07T12:58:12.089Z,15.40
2023-04-07T13:00:40.058Z,16.20
2023-04-07T13:03:08.312Z,15.43
2023-04-07T13:05:36.390Z,14.33
2023-04-07T13:08:04.789Z,15.70
2023-04-07T13:10:32.787Z,15.13
2023-04-07T13:13:02.112Z,16.80
2023-04-07T13:15:30.208Z,19.60
2023-04-07T13:17:58.260Z,13.80
2023-04-07T13:20:28.078Z,10.87
2023-04-07T13:25:28.883Z,13.60
2023-04-07T13:27:56.844Z,12.93
2023-04-07T13:30:26.272Z,19.83
2023-04-07T13:32:54.538Z,14.07
2023-04-07T13:35:22.695Z,16.33
2023-04-07T13:37:50.820Z,16.70
2023-04-07T13:40:18.984Z,19.30
2023-04-07T13:42:47.360Z,16.50
2023-04-07T13:45:15.372Z,17.83
2023-04-07T13:47:46.101Z,21.43
2023-04-07T13:50:14.100Z,16.83
2023-04-07T13:52:42.167Z,20.77
2023-04-07T13:55:11.299Z,21.13
2023-04-07T13:57:39.342Z,18.03
2023-04-07T14:00:08.704Z,17.67
2023-04-07T14:02:36.931Z,19.37
2023-04-07T14:05:07.088Z,17.00
2023-04-07T14:07:35.028Z,17.70
2023-04-07T14:10:03.085Z,18.13
2023-04-07T14:12:31.420Z,16.20
2023-04-07T14:14:59.407Z,15.03
2023-04-07T14:17:27.365Z,15.87
2023-04-07T14:19:55.673Z,17.33
2023-04-07T14:22:25.012Z,16.40
2023-04-07T14:24:53.081Z,16.40
2023-04-07T14:27:22.227Z,16.33
2023-04-07T14:29:50.278Z,18.60
2023-04-07T14:32:18.297Z,16.13
2023-04-07T14:34:46.356Z,13.00
2023-04-07T14:37:16.140Z,15.53
2023-04-07T14:39:55.310Z,20.83
2023-04-07T14:42:27.446Z,15.40
2023-04-07T14:44:55.657Z,23.73
2023-04-07T14:47:23.734Z,17.77
2023-04-07T14:49:53.389Z,17.93
2023-04-07T14:52:22.131Z,15.37
2023-04-07T14:54:51.585Z,18.50
2023-04-07T14:57:19.616Z,15.20
2023-04-07T14:59:48.568Z,17.30
2023-04-07T15:02:17.100Z,16.73
2023-04-07T15:04:45.311Z,15.07
2023-04-07T15:07:13.414Z,13.20
2023-04-07T15:09:41.603Z,13.00
2023-04-07T15:12:10.958Z,16.50
2023-04-07T15:14:38.891Z,16.77
2023-04-07T15:17:06.833Z,14.13
2023-04-07T15:19:34.866Z,13.60
2023-04-07T15:22:02.859Z,16.50
2023-04-07T15:24:30.931Z,16.77
2023-04-07T15:26:58.888Z,13.63
2023-04-07T15:29:28.313Z,16.37
2023-04-07T15:31:56.564Z,20.80
2023-04-07T15:34:24.526Z,14.87
2023-04-07T15:36:52.496Z,14.23
2023-04-07T15:39:20.540Z,17.40
2023-04-07T15:41:48.447Z,13.00
2023-04-07T15:44:19.642Z,17.50
2023-04-07T15:46:49.216Z,13.50
2023-04-07T15:49:23.052Z,12.80
2023-04-07T15:51:52.215Z,12.40
2023-04-07T15:54:20.402Z,15.13
2023-04-07T15:56:48.376Z,14.60
2023-04-07T15:59:16.639Z,19.63
2023-04-07T16:01:44.636Z,16.20
2023-04-07T16:04:14.421Z,19.40
2023-04-07T16:06:42.604Z,17.47
2023-04-07T16:09:10.533Z,15.60
2023-04-07T16:11:38.507Z,17.13
2023-04-07T16:14:08.717Z,18.33
2023-04-07T16:16:38.958Z,27.17
2023-04-07T16:19:06.934Z,15.60
2023-04-07T16:21:39.357Z,13.50
2023-04-07T16:24:07.320Z,12.53
2023-04-07T16:28:30.125Z,13.43
2023-04-07T16:30:58.132Z,13.50
2023-04-07T16:33:28.029Z,11.67
2023-04-07T16:35:56.182Z,12.80
2023-04-07T16:38:24.230Z,10.63
2023-04-07T16:41:03.431Z,12.90
2023-04-07T16:43:33.506Z,12.30
2023-04-07T16:46:01.544Z,14.53
2023-04-07T16:48:30.225Z,11.07
2023-04-07T16:50:58.227Z,12.90
2023-04-07T16:53:26.407Z,8.47
2023-04-07T16:55:54.389Z,8.20
2023-04-07T16:58:22.328Z,8.87
2023-04-07T17:00:51.680Z,10.10
2023-04-07T17:03:19.803Z,12.23
2023-04-07T17:05:48.870Z,10.60
2023-04-07T17:08:16.915Z,8.50
2023-04-07T17:10:44.939Z,13.07
2023-04-07T17:13:12.867Z,19.90
2023-04-07T17:15:41.074Z,12.83
2023-04-07T17:18:10.935Z,14.07
2023-04-07T17:20:39.653Z,12.40
2023-04-07T17:23:08.506Z,15.20
2023-04-07T17:25:36.521Z,13.17
2023-04-07T17:28:04.698Z,15.77
2023-04-07T17:30:33.051Z,15.60
2023-04-07T17:33:01.357Z,16.97
2023-04-07T17:35:31.281Z,13.30
2023-04-07T17:38:02.588Z,13.47
2023-04-07T17:40:31.125Z,14.43
2023-04-07T17:43:00.271Z,14.30
2023-04-07T17:45:28.532Z,14.63
2023-04-07T17:47:57.033Z,25.47
2023-04-07T17:50:25.393Z,15.77
2023-04-07T17:52:54.945Z,16.17
2023-04-07T17:55:23.429Z,18.70
2023-04-07T17:57:52.332Z,13.47
2023-04-07T18:00:22.617Z,21.13
2023-04-07T18:02:51.321Z,13.57
2023-04-07T18:05:20.468Z,12.90
2023-04-07T18:07:49.386Z,14.93
2023-04-07T18:10:19.309Z,14.43
2023-04-07T18:12:47.544Z,13.57
2023-04-07T18:15:16.093Z,9.43
2023-04-07T18:17:44.139Z,10.37
2023-04-07T18:20:13.307Z,8.73
2023-04-07T18:22:42.394Z,11.90
2023-04-07T18:25:11.391Z,7.37
2023-04-07T18:27:40.839Z,8.50
2023-04-07T18:30:10.041Z,10.23
2023-04-07T18:32:38.118Z,6.57
2023-04-07T18:35:07.866Z,7.90
2023-04-07T18:37:36.719Z,9.60
2023-04-07T18:40:05.129Z,7.37
2023-04-07T18:42:33.092Z,7.97
2023-04-07T18:45:02.383Z,10.13
2023-04-07T18:47:30.540Z,7.43
2023-04-07T18:49:58.951Z,6.27
2023-04-07T18:52:27.593Z,7.03
2023-04-07T18:54:56.020Z,6.90
2023-04-07T18:57:24.130Z,6.70
2023-04-07T18:59:52.866Z,7.13
2023-04-07T19:02:22.433Z,6.47
2023-04-07T19:04:50.917Z,8.60
2023-04-07T19:07:18.863Z,5.63
2023-04-07T19:09:47.871Z,7.27
2023-04-07T19:12:15.839Z,8.30
2023-04-07T19:14:43.792Z,7.43
2023-04-07T19:17:12.665Z,8.07
2023-04-07T19:19:41.969Z,8.90
2023-04-07T19:22:09.921Z,8.90
2023-04-07T19:24:37.946Z,11.90
2023-04-07T19:27:06.377Z,10.73
2023-04-07T19:29:35.295Z,10.70
2023-04-07T19:32:03.353Z,10.93
2023-04-07T19:34:31.355Z,11.47
2023-04-07T19:37:00.691Z,13.73
2023-04-07T19:39:29.198Z,8.93
2023-04-07T19:41:57.543Z,15.50
2023-04-07T19:44:27.192Z,12.43
2023-04-07T19:46:55.123Z,14.50
2023-04-07T19:49:23.184Z,10.97
2023-04-07T19:51:54.614Z,10.60
2023-04-07T19:54:24.282Z,10.40
2023-04-07T19:56:52.438Z,11.97
2023-04-07T19:59:20.425Z,11.60
2023-04-07T20:01:48.468Z,16.10
2023-04-07T20:04:16.694Z,14.77
2023-04-07T20:06:44.766Z,14.60
2023-04-07T20:09:12.731Z,15.83
2023-04-07T20:11:42.045Z,15.53
2023-04-07T20:14:09.974Z,18.20
2023-04-07T20:16:37.985Z,14.50
2023-04-07T20:19:05.968Z,22.63
2023-04-07T20:21:33.910Z,16.70
2023-04-07T20:24:02.570Z,18.83
2023-04-07T20:26:30.589Z,18.03
2023-04-07T20:28:59.934Z,20.37
2023-04-07T20:31:28.084Z,20.47
2023-04-07T20:33:56.063Z,19.73
2023-04-07T20:36:24.078Z,21.67
2023-04-07T20:38:52.157Z,20.57
2023-04-07T20:41:22.098Z,21.83
2023-04-07T20:43:51.945Z,23.03
2023-04-07T20:46:21.415Z,24.13
2023-04-07T20:48:49.639Z,25.97
2023-04-07T20:51:17.912Z,25.43
2023-04-07T20:53:45.882Z,21.13
2023-04-07T20:56:14.203Z,22.87
2023-04-07T20:58:42.389Z,21.73
2023-04-07T21:01:10.414Z,22.70
2023-04-07T21:03:40.011Z,28.03
2023-04-07T21:06:08.625Z,21.60
2023-04-07T21:08:36.535Z,28.03
2023-04-07T21:11:04.568Z,21.20
2023-04-07T21:13:32.516Z,27.93
2023-04-07T21:16:01.351Z,26.37
2023-04-07T21:18:29.465Z,29.73
2023-04-07T21:21:01.934Z,31.70
2023-04-07T21:23:31.723Z,31.97
2023-04-07T21:26:02.947Z,29.90
2023-04-07T21:28:30.973Z,30.60
2023-04-07T21:30:59.185Z,31.23
2023-04-07T21:33:27.143Z,28.60
2023-04-07T21:35:55.437Z,29.63
2023-04-07T21:38:24.837Z,24.30
2023-04-07T21:40:52.854Z,28.97
2023-04-07T21:43:22.069Z,31.53
2023-04-07T21:45:50.227Z,26.90
2023-04-07T21:48:20.746Z,27.13
2023-04-07T21:50:48.669Z,31.43
2023-04-07T21:53:16.598Z,32.03
2023-04-07T21:55:46.951Z,27.50
2023-04-07T21:58:15.421Z,29.13
2023-04-07T22:00:43.478Z,31.50
2023-04-07T22:03:11.896Z,36.57
2023-04-07T22:05:40.359Z,36.87
2023-04-07T22:08:08.375Z,28.20
2023-04-07T22:10:36.422Z,33.90
2023-04-07T22:13:06.160Z,32.33
2023-04-07T22:15:34.432Z,30.93
2023-04-07T22:18:03.686Z,30.43
2023-04-07T22:20:31.982Z,36.03
2023-04-07T22:23:00.074Z,28.93
2023-04-07T22:25:28.021Z,36.00
2023-04-07T22:27:56.803Z,32.77
2023-04-07T22:30:26.434Z,42.67
2023-04-07T22:32:54.475Z,37.53
2023-04-07T22:35:22.456Z,32.50
2023-04-07T22:37:50.399Z,37.60
2023-04-07T22:40:18.335Z,30.70
2023-04-07T22:42:46.279Z,31.40
2023-04-07T22:45:14.497Z,33.83
2023-04-07T22:47:44.004Z,29.90
2023-04-07T22:50:12.748Z,35.40
2023-04-07T22:52:41.094Z,39.33
2023-04-07T22:55:10.110Z,32.23
2023-04-07T22:57:38.096Z,33.17
2023-04-07T23:00:07.390Z,34.70
2023-04-07T23:02:35.510Z,33.40
2023-04-07T23:05:07.920Z,31.60
2023-04-07T23:07:36.204Z,33.77
2023-04-07T23:10:04.287Z,30.87
2023-04-07T23:12:32.292Z,33.00
2023-04-07T23:15:00.338Z,35.13
2023-04-07T23:17:28.686Z,31.20
2023-04-07T23:19:56.686Z,31.07
2023-04-07T23:22:26.167Z,36.80
2023-04-07T23:24:54.350Z,28.30
2023-04-07T23:27:22.294Z,28.90
2023-04-07T23:29:51.430Z,28.13
2023-04-07T23:32:19.533Z,25.63
2023-04-07T23:34:47.497Z,28.53
2023-04-07T23:37:15.476Z,26.20
2023-04-07T23:39:44.829Z,28.73
2023-04-07T23:42:12.793Z,27.20
2023-04-07T23:44:40.731Z,29.70
2023-04-07T23:47:09.309Z,29.50
2023-04-07T23:49:37.564Z,33.43
2023-04-07T23:52:06.084Z,32.87
2023-04-07T23:54:34.007Z,26.60
2023-04-07T23:57:03.585Z,28.23
2023-04-07T23:59:32.055Z,26.43
